createdAt,value
2019-03-30T00:01:23.517Z,5.80
2019-03-30T00:06:14.404Z,6.10
2019-03-30T00:11:05.293Z,6.00
2019-03-30T00:15:56.941Z,5.50
2019-03-30T00:20:48.577Z,5.30
2019-03-30T00:25:40.231Z,5.10
2019-03-30T00:30:31.125Z,5.10
2019-03-30T00:35:22.756Z,5.30
2019-03-30T00:40:14.388Z,5.80
2019-03-30T00:45:06.029Z,5.60
2019-03-30T00:49:57.669Z,5.40
2019-03-30T00:54:49.385Z,5.10
2019-03-30T00:59:40.285Z,5.10
2019-03-30T01:04:31.178Z,4.90
2019-03-30T01:09:22.068Z,4.80
2019-03-30T01:14:13.708Z,4.70
2019-03-30T01:19:04.605Z,4.70
2019-03-30T01:23:56.246Z,5.30
2019-03-30T01:28:47.940Z,5.10
2019-03-30T01:33:38.840Z,5.10
2019-03-30T01:38:29.732Z,4.80
2019-03-30T01:43:20.629Z,4.70
2019-03-30T01:48:12.268Z,4.40
2019-03-30T01:53:03.903Z,4.30
2019-03-30T01:57:55.530Z,4.80
2019-03-30T02:02:46.425Z,4.70
2019-03-30T02:07:37.321Z,5.00
2019-03-30T02:12:28.213Z,4.80
2019-03-30T02:17:20.321Z,4.60
2019-03-30T02:22:10.749Z,4.30
2019-03-30T02:27:02.372Z,4.10
2019-03-30T02:31:53.267Z,4.10
2019-03-30T02:36:44.173Z,4.00
2019-03-30T02:41:35.059Z,4.40
2019-03-30T02:46:25.953Z,4.80
2019-03-30T02:51:17.643Z,4.50
2019-03-30T02:56:08.527Z,4.50
2019-03-30T03:00:59.455Z,4.30
2019-03-30T03:05:50.343Z,4.10
2019-03-30T03:10:41.983Z,3.80
2019-03-30T03:15:33.608Z,3.80
2019-03-30T03:20:24.523Z,3.80
2019-03-30T03:25:15.406Z,4.30
2019-03-30T03:30:06.305Z,4.50
2019-03-30T03:34:57.230Z,4.30
2019-03-30T03:39:48.113Z,4.10
2019-03-30T03:44:39.742Z,3.70
2019-03-30T03:49:31.400Z,3.60
2019-03-30T03:54:23.027Z,3.50
2019-03-30T03:59:14.659Z,3.80
2019-03-30T04:04:06.290Z,4.30
2019-03-30T04:08:57.917Z,4.30
2019-03-30T04:13:49.542Z,4.00
2019-03-30T04:18:40.427Z,4.00
2019-03-30T04:23:31.329Z,3.80
2019-03-30T04:28:22.222Z,3.60
2019-03-30T04:33:13.930Z,3.30
2019-03-30T04:38:04.804Z,3.30
2019-03-30T04:42:55.692Z,3.20
2019-03-30T04:47:47.334Z,4.00
2019-03-30T04:52:38.967Z,4.00
2019-03-30T04:57:30.657Z,3.80
2019-03-30T05:02:21.542Z,3.80
2019-03-30T05:07:12.429Z,3.50
2019-03-30T05:12:04.057Z,3.20
2019-03-30T05:16:55.707Z,3.10
2019-03-30T05:21:47.378Z,3.00
2019-03-30T05:26:38.252Z,3.00
2019-03-30T05:31:29.878Z,3.90
2019-03-30T05:36:20.770Z,3.90
2019-03-30T05:41:11.646Z,3.80
2019-03-30T05:46:02.517Z,3.60
2019-03-30T05:50:54.144Z,3.30
2019-03-30T05:55:45.034Z,3.30
2019-03-30T06:00:35.922Z,3.20
2019-03-30T06:05:27.551Z,3.10
2019-03-30T06:10:19.180Z,3.40
2019-03-30T06:15:10.808Z,4.00
2019-03-30T06:20:01.698Z,4.00
2019-03-30T06:24:52.585Z,4.10
2019-03-30T06:29:43.465Z,4.00
2019-03-30T06:34:42.293Z,3.80
2019-03-30T06:39:36.939Z,3.90
2019-03-30T06:44:24.829Z,3.90
2019-03-30T06:49:16.517Z,4.10
2019-03-30T06:54:07.417Z,4.00
2019-03-30T06:58:58.329Z,4.50
2019-03-30T07:03:49.233Z,5.30
2019-03-30T07:08:40.850Z,5.60
2019-03-30T07:13:31.720Z,5.60
2019-03-30T07:18:22.673Z,5.60
2019-03-30T07:23:13.559Z,5.60
2019-03-30T07:28:05.203Z,5.80
2019-03-30T07:32:56.087Z,5.80
2019-03-30T07:37:46.972Z,5.90
2019-03-30T07:42:37.946Z,6.50
2019-03-30T07:47:28.850Z,7.20
2019-03-30T07:52:19.742Z,7.20
2019-03-30T07:57:17.161Z,7.10
2019-03-30T08:02:02.341Z,7.10
2019-03-30T08:06:53.234Z,7.20
2019-03-30T08:11:44.124Z,7.20
2019-03-30T08:16:35.004Z,7.30
2019-03-30T08:21:25.882Z,7.80
2019-03-30T08:26:17.598Z,8.60
2019-03-30T08:31:09.226Z,8.60
2019-03-30T08:36:00.113Z,8.60
2019-03-30T08:40:50.993Z,8.70
2019-03-30T08:45:42.672Z,8.90
2019-03-30T08:50:33.565Z,8.90
2019-03-30T08:55:24.597Z,9.10
2019-03-30T09:00:15.522Z,9.60
2019-03-30T09:05:06.429Z,10.40
2019-03-30T09:09:57.317Z,10.50
2019-03-30T09:14:48.237Z,10.60
2019-03-30T09:19:39.879Z,10.80
2019-03-30T09:24:30.767Z,10.80
2019-03-30T09:29:21.679Z,11.00
2019-03-30T09:34:12.611Z,11.40
2019-03-30T09:39:04.258Z,12.20
2019-03-30T09:43:55.947Z,12.20
2019-03-30T09:48:46.846Z,12.20
2019-03-30T09:53:37.733Z,12.30
2019-03-30T09:58:29.372Z,12.40
2019-03-30T10:03:21.008Z,12.70
2019-03-30T10:08:12.642Z,13.40
2019-03-30T10:13:04.264Z,13.60
2019-03-30T10:17:55.884Z,13.60
2019-03-30T10:22:46.775Z,13.60
2019-03-30T10:27:37.663Z,13.70
2019-03-30T10:32:28.554Z,13.70
2019-03-30T10:37:20.214Z,14.20
2019-03-30T10:42:11.177Z,14.20
2019-03-30T10:47:02.102Z,14.90
2019-03-30T10:51:54.509Z,15.10
2019-03-30T10:56:43.897Z,15.10
2019-03-30T11:01:34.801Z,15.30
2019-03-30T11:06:25.771Z,15.50
2019-03-30T11:11:16.758Z,16.00
2019-03-30T11:16:07.654Z,16.80
2019-03-30T11:20:59.282Z,17.40
2019-03-30T11:25:50.921Z,17.60
2019-03-30T11:30:42.545Z,17.90
2019-03-30T11:35:34.221Z,18.50
2019-03-30T11:40:25.109Z,18.40
2019-03-30T11:45:16.837Z,19.80
2019-03-30T11:50:07.749Z,19.70
2019-03-30T11:54:58.674Z,20.10
2019-03-30T11:59:50.303Z,20.90
2019-03-30T12:04:41.194Z,20.90
2019-03-30T12:09:32.086Z,21.30
2019-03-30T12:14:22.978Z,22.00
2019-03-30T12:19:14.655Z,23.10
2019-03-30T12:24:05.536Z,23.10
2019-03-30T12:28:57.157Z,23.70
2019-03-30T12:33:48.802Z,23.90
2019-03-30T12:38:40.420Z,24.20
2019-03-30T12:43:31.303Z,24.20
2019-03-30T12:48:22.197Z,24.60
2019-03-30T12:53:13.089Z,24.50
2019-03-30T12:58:04.713Z,24.40
2019-03-30T13:02:56.338Z,24.30
2019-03-30T13:07:47.221Z,24.30
2019-03-30T13:12:38.113Z,24.40
2019-03-30T13:17:29.048Z,24.30
2019-03-30T13:22:20.718Z,23.60
2019-03-30T13:27:13.053Z,23.60
2019-03-30T13:32:02.522Z,23.40
2019-03-30T13:36:53.420Z,23.50
2019-03-30T13:41:44.317Z,23.70
2019-03-30T13:46:35.966Z,23.30
2019-03-30T13:51:27.590Z,23.00
2019-03-30T13:56:19.221Z,23.10
2019-03-30T14:01:10.845Z,23.40
2019-03-30T14:06:01.721Z,23.40
2019-03-30T14:10:52.618Z,23.50
2019-03-30T14:15:43.511Z,23.30
2019-03-30T14:20:35.141Z,23.30
2019-03-30T14:25:26.020Z,23.30
2019-03-30T14:30:16.923Z,23.60
2019-03-30T14:35:07.801Z,23.90
2019-03-30T14:39:59.437Z,23.60
2019-03-30T14:44:51.062Z,23.50
2019-03-30T14:49:42.706Z,23.70
2019-03-30T14:54:34.369Z,24.00
2019-03-30T14:59:25.307Z,24.00
2019-03-30T15:04:16.293Z,24.00
2019-03-30T15:09:07.938Z,23.70
2019-03-30T15:13:58.833Z,23.60
2019-03-30T15:18:50.466Z,23.70
2019-03-30T15:23:42.101Z,23.70
2019-03-30T15:28:33.741Z,23.30
2019-03-30T15:33:25.373Z,22.80
2019-03-30T15:38:17.006Z,22.30
2019-03-30T15:43:07.893Z,22.30
2019-03-30T15:47:58.833Z,22.30
2019-03-30T15:52:49.705Z,22.40
2019-03-30T15:57:40.613Z,22.10
2019-03-30T16:02:31.590Z,21.70
2019-03-30T16:07:22.484Z,21.20
2019-03-30T16:12:13.409Z,21.00
2019-03-30T16:17:04.301Z,21.20
2019-03-30T16:21:55.184Z,21.00
2019-03-30T16:26:46.902Z,20.10
2019-03-30T16:31:37.786Z,20.10
2019-03-30T16:36:28.690Z,19.80
2019-03-30T16:41:19.587Z,19.80
2019-03-30T16:46:10.478Z,20.00
2019-03-30T16:51:01.386Z,19.60
2019-03-30T16:55:52.278Z,19.20
2019-03-30T17:00:55.688Z,18.80
2019-03-30T17:05:34.070Z,18.60
2019-03-30T17:10:25.702Z,18.70
2019-03-30T17:15:17.342Z,18.40
2019-03-30T17:20:08.965Z,18.00
2019-03-30T17:25:00.602Z,17.60
2019-03-30T17:29:52.228Z,17.50
2019-03-30T17:34:43.891Z,17.70
2019-03-30T17:39:34.781Z,17.70
2019-03-30T17:44:25.746Z,17.60
2019-03-30T17:49:16.606Z,17.20
2019-03-30T17:54:08.973Z,16.40
2019-03-30T17:59:00.603Z,16.50
2019-03-30T18:03:51.502Z,16.40
2019-03-30T18:08:42.469Z,16.60
2019-03-30T18:13:36.719Z,15.90
2019-03-30T18:18:25.009Z,15.80
2019-03-30T18:23:16.632Z,15.20
2019-03-30T18:28:07.528Z,15.10
2019-03-30T18:32:58.422Z,15.30
2019-03-30T18:37:49.310Z,15.40
2019-03-30T18:42:40.930Z,14.60
2019-03-30T18:47:32.570Z,14.20
2019-03-30T18:52:24.206Z,14.00
2019-03-30T18:57:15.835Z,14.10
2019-03-30T19:02:07.514Z,14.30
2019-03-30T19:06:58.399Z,14.20
2019-03-30T19:11:50.029Z,13.50
2019-03-30T19:16:41.014Z,13.50
2019-03-30T19:21:31.909Z,13.20
2019-03-30T19:26:22.797Z,12.90
2019-03-30T19:31:14.422Z,13.30
2019-03-30T19:36:06.044Z,13.10
2019-03-30T19:40:56.935Z,13.10
2019-03-30T19:45:47.830Z,12.70
2019-03-30T19:50:38.736Z,12.30
2019-03-30T19:55:29.626Z,12.10
2019-03-30T20:00:21.253Z,12.60
2019-03-30T20:05:13.161Z,12.50
2019-03-30T20:10:04.050Z,12.40
2019-03-30T20:14:54.935Z,12.10
2019-03-30T20:19:46.600Z,11.60
2019-03-30T20:24:37.480Z,11.60
2019-03-30T20:29:28.364Z,11.40
2019-03-30T20:34:19.249Z,11.80
2019-03-30T20:39:10.151Z,12.00
2019-03-30T20:44:01.786Z,11.50
2019-03-30T20:48:53.562Z,11.30
2019-03-30T20:53:44.463Z,11.20
2019-03-30T20:58:35.345Z,11.10
2019-03-30T21:03:26.234Z,11.10
2019-03-30T21:08:17.161Z,11.60
2019-03-30T21:13:08.058Z,11.60
2019-03-30T21:17:59.062Z,11.30
2019-03-30T21:22:49.965Z,11.10
2019-03-30T21:27:41.602Z,10.70
2019-03-30T21:32:32.517Z,10.70
2019-03-30T21:37:24.137Z,11.30
2019-03-30T21:42:15.769Z,11.20
2019-03-30T21:47:06.649Z,11.10
2019-03-30T21:51:57.544Z,10.90
2019-03-30T21:56:48.421Z,10.70
2019-03-30T22:01:40.800Z,10.40
2019-03-30T22:06:31.689Z,10.40
2019-03-30T22:11:22.688Z,10.80
2019-03-30T22:16:13.598Z,11.00
2019-03-30T22:21:04.530Z,10.80
2019-03-30T22:25:55.408Z,10.50
2019-03-30T22:30:46.307Z,10.20
2019-03-30T22:35:37.211Z,10.00
2019-03-30T22:40:28.927Z,10.50
2019-03-30T22:45:19.818Z,10.50
2019-03-30T22:50:10.701Z,10.50
2019-03-30T22:55:02.322Z,10.00
2019-03-30T22:59:53.953Z,9.70
2019-03-30T23:04:45.582Z,9.60
2019-03-30T23:09:36.474Z,9.50
2019-03-30T23:14:27.382Z,9.60
2019-03-30T23:19:18.282Z,10.00
2019-03-30T23:24:09.247Z,10.10
2019-03-30T23:29:00.129Z,9.80
2019-03-30T23:33:51.728Z,9.30
2019-03-30T23:38:43.359Z,9.10
2019-03-30T23:43:34.990Z,9.00
2019-03-30T23:48:26.631Z,9.50
2019-03-30T23:53:18.268Z,9.60
2019-03-30T23:58:09.962Z,9.30
